Terminal Aerodrome Forecast
Issued by NWS Norman, OK

Home | Current Version | Previous Version | Text Only | Print | Product List | Glossary On
Versions: 1 2 3 4 5 6 7 8 9 10 11 12 13 14 15 16 17 18 19 20 21 22 23 24 25
000
FTUS44 KOUN 281120
TAFSPS
TAF
KSPS 281120Z 2812/2912 06012KT P6SM VCTS BKN080CB
      TEMPO 2812/2814 4SM TSRA OVC040CB
     FM281700 08011KT P6SM SCT100 BKN250
     FM290000 11007KT P6SM SCT150=

USA.gov is the U.S. government's official web portal to all federal, state and local government web resources and services.